WARNING - Please set your current conddition source. Defaulted to metar

Welkom op de weersite van Veghel e.o.

Voor vele een welkome verandering , het regent weer.

Temperatuur weer onder 25 graden dus;

Einde aan de hittegolf 2018.

Deze begon op 12 juli t/m 8 augustus totaal van 28 dagen.

Het warmst was het op 26 en 27 juli met 36.6 graden.


Webcam Veghel  Webcam Veghel


Onweer radar Meer informatie blitzortung!


Regen radar Meer informatie rain snow radar


U vindt ons ook hier:

Het Weer Aktueel

European Weather Network

Weather Underground

Benelux Weer Netwerk

AWEKAS


Het weer levert geen direct gevaar op.    Er zijn geen waarschuwingen afgegeven.

METAR rapporten vliegvelden

   
EHAM - Amsterdam
Gewijzigd: 14-11-2018 16:55
Helder  
Helder  
   Wind: ZZO 14.8 km/h
Wind: ZZO 14.8 km/h
Temperatuur: 11°C
Dauwpunt: 8°C
Vochtigheid: 82%
Barometer: 1025 hPa
Zicht: meer dan 10 km
Bewolking: Helder ft
EHAM 141555Z 16008KT CAVOK 11/08 Q1025 NOSIG
EHEH - Eindhoven
Gewijzigd: 14-11-2018 16:25
Bewolking  
Bewolking  
   Wind: ZZO 7.4 km/h
Wind: ZZO 7.4 km/h
Temperatuur: 11°C
Dauwpunt: 7°C
Vochtigheid: 77%
Barometer: 1026 hPa
Bewolking: Overcast
Zicht: meer dan 10 km
Bewolking: Bewolking 33000 ft
EHEH 141525Z AUTO 15004KT 120V200 9999 OVC330 11/07 Q1026 BLU 16005KT CAVOK
EHGR - Gilze/Rijen
Gewijzigd: 14-11-2018 16:55
Helder  
Helder  
   Wind: ZO 9.3 km/h
Wind: ZO 9.3 km/h
Temperatuur: 10°C
Voelt als: 9°C
Dauwpunt: 7°C
Vochtigheid: 82%
Barometer: 1026 hPa
Bewolking: Clear
Zicht: meer dan 10 km
Bewolking: Helder ft
EHGR 141555Z AUTO 13005KT 9999 NCD 10/07 Q1026 BLU
EHBK - Maastricht
Gewijzigd: 14-11-2018 16:55
Gedeeltelijk bewolkt  
Gedeeltelijk bewolkt  
   Wind: ZZO 3.7 km/h
Wind: ZZO 3.7 km/h
Temperatuur: 11°C
Dauwpunt: 5°C
Vochtigheid: 67%
Barometer: 1026 hPa
Bewolking: Partly Cloudy
Zicht: meer dan 10 km
Bewolking: Gedeeltelijk bewolkt ft
EHBK 141555Z AUTO 16002KT 9999 NSC 11/05 Q1026 NOSIG
EHVK - Volkel
Gewijzigd: 14-11-2018 16:55
Helder  
Helder  
   Wind: ZZO 7.4 km/h
Wind: ZZO 7.4 km/h
Temperatuur: 10°C
Voelt als: 9°C
Dauwpunt: 7°C
Vochtigheid: 82%
Barometer: 1026 hPa
Bewolking: Clear
Zicht: meer dan 10 km
Bewolking: Helder ft
EHVK 141555Z AUTO 15004KT 9999 NCD 10/07 Q1026 BLU
EHFS - Vlissingen
Gewijzigd: 14-11-2018 16:25
Gedeeltelijk bewolkt  
Gedeeltelijk bewolkt  
   Wind: ZZO 20.4 km/h
Wind: ZZO 20.4 km/h
Temperatuur: 12°C
Dauwpunt: 9°C
Vochtigheid: 82%
Barometer: 1024 hPa
Bewolking: Partly Cloudy
Zicht: meer dan 10 km
Bewolking: Gedeeltelijk bewolkt ft
EHFS 141525Z AUTO 16011KT 9999 NSC 12/09 Q1024 W///H///

Script ontwikkeld door  Saratoga-weather.org Aangepast voor de template door  Weerstation Leuven

Apparatuur in gebruik:

Weerstation
Davis VP2

Weerprogramma
WeatherLink

Weercomputer
Sponsor

Webleverancier
My provider

Davis VP2

WeatherLink

Sponsor

My provider